createdAt,value
2018-02-20T00:01:49.442Z,69.10
2018-02-20T00:03:53.015Z,66.43
2018-02-20T00:05:56.585Z,65.33
2018-02-20T00:08:00.167Z,71.23
2018-02-20T00:10:05.405Z,66.03
2018-02-20T00:12:08.998Z,61.67
2018-02-20T00:14:12.565Z,62.93
2018-02-20T00:16:16.858Z,62.00
2018-02-20T00:18:20.453Z,68.43
2018-02-20T00:20:23.971Z,67.07
2018-02-20T00:22:27.497Z,66.60
2018-02-20T00:24:31.078Z,68.80
2018-02-20T00:26:34.627Z,75.30
2018-02-20T00:28:38.107Z,66.60
2018-02-20T00:30:41.679Z,70.13
2018-02-20T00:32:45.180Z,64.67
2018-02-20T00:34:48.663Z,60.97
2018-02-20T00:36:52.226Z,66.10
2018-02-20T00:38:55.765Z,68.17
2018-02-20T00:40:59.281Z,71.50
2018-02-20T00:43:02.849Z,73.70
2018-02-20T00:45:06.360Z,72.87
2018-02-20T00:47:09.912Z,79.83
2018-02-20T00:49:14.278Z,73.37
2018-02-20T00:51:17.749Z,71.70
2018-02-20T00:53:21.254Z,66.60
2018-02-20T00:55:24.864Z,70.37
2018-02-20T00:57:28.362Z,73.53
2018-02-20T00:59:31.873Z,74.63
2018-02-20T01:01:35.450Z,71.40
2018-02-20T01:03:38.991Z,74.07
2018-02-20T01:05:43.339Z,73.37
2018-02-20T01:07:46.921Z,72.70
2018-02-20T01:09:50.493Z,75.60
2018-02-20T01:11:54.850Z,73.00
2018-02-20T01:13:58.414Z,71.53
2018-02-20T01:16:02.317Z,74.73
2018-02-20T01:18:05.955Z,65.12
2018-02-20T01:20:09.572Z,63.75
2018-02-20T01:22:13.084Z,77.27
2018-02-20T01:24:16.670Z,67.95
2018-02-20T01:26:20.220Z,74.97
2018-02-20T01:28:23.759Z,67.55
2018-02-20T01:30:27.359Z,70.10
2018-02-20T01:32:30.881Z,77.55
2018-02-20T01:34:34.370Z,69.73
2018-02-20T01:36:38.720Z,63.20
2018-02-20T01:38:42.293Z,68.23
2018-02-20T01:40:46.585Z,69.40
2018-02-20T01:42:50.154Z,74.83
2018-02-20T01:44:53.681Z,70.28
2018-02-20T01:46:57.203Z,67.17
2018-02-20T01:49:00.770Z,66.67
2018-02-20T01:51:09.221Z,72.70
2018-02-20T01:53:12.799Z,66.32
2018-02-20T01:55:16.406Z,67.22
2018-02-20T01:57:20.679Z,74.60
2018-02-20T01:59:24.198Z,76.57
2018-02-20T02:01:27.761Z,70.63
2018-02-20T02:03:31.280Z,72.20
2018-02-20T02:05:34.839Z,70.00
2018-02-20T02:07:38.455Z,73.60
2018-02-20T02:09:42.785Z,77.70
2018-02-20T02:11:46.305Z,76.93
2018-02-20T02:13:49.927Z,76.25
2018-02-20T02:15:53.424Z,79.90
2018-02-20T02:17:57.012Z,82.22
2018-02-20T02:20:01.382Z,87.23
2018-02-20T02:22:04.921Z,92.10
2018-02-20T02:24:09.169Z,90.80
2018-02-20T02:26:12.729Z,94.77
2018-02-20T02:28:16.301Z,73.23
2018-02-20T02:30:19.895Z,77.50
2018-02-20T02:32:23.453Z,82.10
2018-02-20T02:34:27.013Z,80.35
2018-02-20T02:36:30.571Z,77.07
2018-02-20T02:38:34.152Z,76.33
2018-02-20T02:40:37.747Z,76.13
2018-02-20T02:42:42.133Z,75.47
2018-02-20T02:44:45.661Z,82.47
2018-02-20T02:46:59.101Z,76.63
2018-02-20T02:49:04.658Z,77.97
2018-02-20T02:51:08.217Z,82.03
2018-02-20T02:53:11.763Z,79.05
2018-02-20T02:55:15.348Z,86.73
2018-02-20T02:57:19.006Z,83.43
2018-02-20T02:59:22.651Z,92.65
2018-02-20T03:01:26.260Z,80.50
2018-02-20T03:03:29.833Z,79.20
2018-02-20T03:05:34.109Z,83.37
2018-02-20T03:07:38.558Z,91.70
2018-02-20T03:09:42.876Z,79.20
2018-02-20T03:11:46.426Z,74.60
2018-02-20T03:13:50.026Z,75.85
2018-02-20T03:15:54.321Z,88.10
2018-02-20T03:17:57.924Z,85.22
2018-02-20T03:20:01.504Z,81.63
2018-02-20T03:22:05.034Z,73.72
2018-02-20T03:24:08.554Z,76.30
2018-02-20T03:26:12.169Z,80.47
2018-02-20T03:28:15.784Z,86.03
2018-02-20T03:30:19.318Z,93.20
2018-02-20T03:32:22.914Z,108.70
2018-02-20T03:34:26.501Z,109.40
2018-02-20T03:36:30.031Z,108.17
2018-02-20T03:38:33.624Z,92.25
2018-02-20T03:40:37.973Z,89.72
2018-02-20T03:42:41.494Z,93.85
2018-02-20T03:44:45.025Z,91.82
2018-02-20T03:46:48.669Z,85.80
2018-02-20T03:48:52.182Z,76.57
2018-02-20T03:50:55.720Z,79.00
2018-02-20T03:53:00.080Z,74.18
2018-02-20T03:55:03.654Z,79.35
2018-02-20T03:57:07.166Z,79.93
2018-02-20T03:59:10.735Z,75.00
2018-02-20T04:01:15.688Z,75.73
2018-02-20T04:03:19.234Z,85.43
2018-02-20T04:05:22.815Z,90.35
2018-02-20T04:07:26.369Z,103.35
2018-02-20T04:09:29.920Z,87.50
2018-02-20T04:11:33.483Z,95.13
2018-02-20T04:13:37.043Z,105.40
2018-02-20T04:15:40.580Z,98.90
2018-02-20T04:17:44.198Z,109.45
2018-02-20T04:19:47.820Z,96.60
2018-02-20T04:21:52.116Z,103.80
2018-02-20T04:23:56.497Z,106.22
2018-02-20T04:26:00.018Z,93.57
2018-02-20T04:28:03.568Z,100.68
2018-02-20T04:30:07.207Z,98.65
2018-02-20T04:32:10.730Z,100.40
2018-02-20T04:34:15.008Z,88.75
2018-02-20T04:36:18.558Z,95.10
2018-02-20T04:38:22.091Z,96.70
2018-02-20T04:40:25.646Z,90.40
2018-02-20T04:42:29.256Z,81.78
2018-02-20T04:44:32.811Z,83.32
2018-02-20T04:46:36.408Z,98.43
2018-02-20T04:48:40.031Z,90.90
2018-02-20T04:50:44.345Z,84.33
2018-02-20T04:52:47.840Z,87.53
2018-02-20T04:54:51.436Z,82.12
2018-02-20T04:56:54.959Z,86.17
2018-02-20T04:58:59.320Z,80.05
2018-02-20T05:01:03.628Z,81.13
2018-02-20T05:03:07.173Z,79.67
2018-02-20T05:05:10.758Z,83.80
2018-02-20T05:07:14.339Z,77.73
2018-02-20T05:09:17.892Z,85.30
2018-02-20T05:11:21.419Z,83.03
2018-02-20T05:13:25.767Z,75.05
2018-02-20T05:15:29.350Z,78.55
2018-02-20T05:17:32.877Z,81.15
2018-02-20T05:19:36.523Z,76.05
2018-02-20T05:21:40.835Z,92.83
2018-02-20T05:23:44.358Z,92.72
2018-02-20T05:25:47.920Z,87.80
2018-02-20T05:27:52.224Z,80.45
2018-02-20T05:29:56.549Z,80.22
2018-02-20T05:32:00.168Z,81.20
2018-02-20T05:34:03.714Z,83.60
2018-02-20T05:36:07.270Z,80.53
2018-02-20T05:38:10.844Z,86.65
2018-02-20T05:40:15.167Z,79.05
2018-02-20T05:42:18.677Z,74.57
2018-02-20T05:44:22.300Z,78.82
2018-02-20T05:46:25.905Z,82.40
2018-02-20T05:48:29.467Z,80.60
2018-02-20T05:50:33.060Z,84.00
2018-02-20T05:52:36.663Z,75.75
2018-02-20T05:54:40.249Z,83.35
2018-02-20T05:56:44.672Z,79.50
2018-02-20T05:58:48.225Z,81.65
2018-02-20T06:00:52.584Z,88.37
2018-02-20T06:02:56.190Z,80.75
2018-02-20T06:04:59.740Z,81.03
2018-02-20T06:07:03.327Z,79.12
2018-02-20T06:09:07.690Z,86.78
2018-02-20T06:11:11.362Z,83.82
2018-02-20T06:13:15.757Z,81.82
2018-02-20T06:15:19.400Z,88.55
2018-02-20T06:17:22.923Z,88.05
2018-02-20T06:19:26.488Z,82.88
2018-02-20T06:21:30.051Z,94.23
2018-02-20T06:23:33.598Z,84.95
2018-02-20T06:25:37.101Z,77.47
2018-02-20T06:27:40.771Z,76.07
2018-02-20T06:29:44.310Z,77.72
2018-02-20T06:31:47.870Z,78.33
2018-02-20T06:33:52.217Z,77.90
2018-02-20T06:35:55.746Z,84.33
2018-02-20T06:37:59.351Z,86.00
2018-02-20T06:40:02.949Z,78.62
2018-02-20T06:42:07.542Z,82.20
2018-02-20T06:44:11.820Z,79.62
2018-02-20T06:46:15.404Z,89.72
2018-02-20T06:48:18.933Z,85.53
2018-02-20T06:50:22.476Z,82.40
2018-02-20T06:52:26.062Z,85.15
2018-02-20T06:54:29.580Z,89.57
2018-02-20T06:56:33.122Z,90.57
2018-02-20T06:58:36.713Z,79.33
2018-02-20T07:00:40.261Z,86.70
2018-02-20T07:02:43.827Z,93.40
2018-02-20T07:04:48.358Z,91.70
2018-02-20T07:06:52.720Z,86.40
2018-02-20T07:08:56.295Z,93.12
2018-02-20T07:10:59.885Z,86.33
2018-02-20T07:13:03.467Z,89.10
2018-02-20T07:15:06.962Z,77.60
2018-02-20T07:17:10.454Z,79.57
2018-02-20T07:19:14.054Z,83.72
2018-02-20T07:21:18.390Z,81.17
2018-02-20T07:23:21.956Z,89.33
2018-02-20T07:25:26.296Z,80.50
2018-02-20T07:27:29.858Z,95.07
2018-02-20T07:29:33.430Z,91.07
2018-02-20T07:31:37.001Z,88.40
2018-02-20T07:33:40.546Z,90.57
2018-02-20T07:35:44.059Z,88.63
2018-02-20T07:37:48.384Z,91.00
2018-02-20T07:39:51.963Z,93.53
2018-02-20T07:41:56.277Z,91.90
2018-02-20T07:44:00.684Z,86.60
2018-02-20T07:46:05.056Z,88.67
2018-02-20T07:48:09.409Z,84.90
2018-02-20T07:50:13.799Z,86.27
2018-02-20T07:52:17.400Z,91.07
2018-02-20T07:54:20.933Z,84.18
2018-02-20T07:56:24.575Z,86.35
2018-02-20T07:58:28.150Z,85.38
2018-02-20T08:00:31.672Z,84.27
2018-02-20T08:02:35.301Z,83.82
2018-02-20T08:04:39.606Z,89.43
2018-02-20T08:06:43.142Z,79.10
2018-02-20T08:08:46.729Z,91.93
2018-02-20T08:10:50.268Z,88.83
2018-02-20T08:12:53.797Z,86.15
2018-02-20T08:14:57.365Z,90.10
2018-02-20T08:17:00.943Z,93.77
2018-02-20T08:19:04.548Z,89.83
2018-02-20T08:21:08.138Z,84.67
2018-02-20T08:23:11.718Z,85.97
2018-02-20T08:25:15.269Z,87.37
2018-02-20T08:27:18.876Z,95.57
2018-02-20T08:29:23.181Z,83.40
2018-02-20T08:31:26.724Z,91.53
2018-02-20T08:33:30.309Z,85.10
2018-02-20T08:35:33.849Z,86.07
2018-02-20T08:37:41.500Z,92.83
2018-02-20T08:39:46.039Z,92.97
2018-02-20T08:41:49.636Z,90.47
2018-02-20T08:43:53.220Z,90.27
2018-02-20T08:45:56.769Z,95.03
2018-02-20T08:48:00.303Z,95.30
2018-02-20T08:50:03.970Z,89.77
2018-02-20T08:52:08.294Z,95.87
2018-02-20T08:54:11.889Z,90.37
2018-02-20T08:56:15.468Z,84.77
2018-02-20T08:58:19.818Z,90.53
2018-02-20T09:00:23.520Z,84.10
2018-02-20T09:02:27.055Z,91.77
2018-02-20T09:04:30.612Z,91.03
2018-02-20T09:06:34.210Z,87.57
2018-02-20T09:08:38.500Z,92.17
2018-02-20T09:10:42.822Z,87.53
2018-02-20T09:12:46.406Z,87.13
2018-02-20T09:14:50.756Z,92.10
2018-02-20T09:16:54.394Z,85.77
2018-02-20T09:18:57.994Z,81.60
2018-02-20T09:21:01.520Z,84.87
2018-02-20T09:23:05.100Z,78.30
2018-02-20T09:25:09.417Z,87.20
2018-02-20T09:27:13.108Z,82.07
2018-02-20T09:29:17.473Z,78.83
2018-02-20T09:31:21.116Z,75.97
2018-02-20T09:33:24.655Z,83.13
2018-02-20T09:35:28.252Z,87.33
2018-02-20T09:37:31.802Z,82.00
2018-02-20T09:39:35.398Z,89.77
2018-02-20T09:41:38.992Z,87.37
2018-02-20T09:43:42.748Z,78.70
2018-02-20T09:45:46.322Z,78.43
2018-02-20T09:47:50.601Z,82.17
2018-02-20T09:49:54.089Z,65.60
2018-02-20T09:51:57.742Z,73.23
2018-02-20T09:54:01.278Z,68.30
2018-02-20T09:56:04.803Z,70.80
2018-02-20T09:58:09.145Z,67.43
2018-02-20T10:00:13.484Z,73.27
2018-02-20T10:02:17.065Z,67.27
2018-02-20T10:04:20.659Z,59.97
2018-02-20T10:06:24.231Z,66.87
2018-02-20T10:08:27.783Z,69.10
2018-02-20T10:10:31.335Z,57.37
2018-02-20T10:12:34.918Z,60.20
2018-02-20T10:14:38.480Z,66.80
2018-02-20T10:16:42.096Z,60.47
2018-02-20T10:18:46.458Z,58.80
2018-02-20T10:20:49.992Z,60.73
2018-02-20T10:22:53.545Z,53.67
2018-02-20T10:24:57.117Z,55.90
2018-02-20T10:27:00.667Z,61.17
2018-02-20T10:29:04.239Z,57.07
2018-02-20T10:31:07.830Z,50.03
2018-02-20T10:33:11.399Z,52.90
2018-02-20T10:35:14.994Z,57.83
2018-02-20T10:37:18.591Z,46.30
2018-02-20T10:39:22.148Z,53.73
2018-02-20T10:41:25.774Z,47.83
2018-02-20T10:43:29.311Z,55.40
2018-02-20T10:45:32.893Z,53.00
2018-02-20T10:47:36.510Z,49.43
2018-02-20T10:49:40.063Z,42.37
2018-02-20T10:51:44.420Z,45.37
2018-02-20T10:53:47.938Z,46.23
2018-02-20T10:55:51.451Z,43.43
2018-02-20T10:57:55.838Z,50.80
2018-02-20T10:59:59.398Z,51.67
2018-02-20T11:02:02.996Z,48.60
2018-02-20T11:04:06.589Z,52.53
2018-02-20T11:06:10.102Z,45.53
2018-02-20T11:08:13.629Z,49.27
2018-02-20T11:10:17.251Z,48.93
2018-02-20T11:12:21.565Z,44.17
2018-02-20T11:14:25.852Z,36.93
2018-02-20T11:16:29.471Z,43.07
2018-02-20T11:18:33.747Z,37.87
2018-02-20T11:20:37.308Z,42.93
2018-02-20T11:22:40.932Z,44.83
2018-02-20T11:24:44.486Z,40.77
2018-02-20T11:26:48.827Z,41.23
2018-02-20T11:28:52.436Z,37.63
2018-02-20T11:30:56.093Z,43.17
2018-02-20T11:32:59.666Z,36.93
2018-02-20T11:35:03.284Z,40.40
2018-02-20T11:37:07.626Z,39.03
2018-02-20T11:39:11.163Z,40.17
2018-02-20T11:41:14.750Z,37.93
2018-02-20T11:43:19.089Z,39.57
2018-02-20T11:45:22.712Z,37.50
2018-02-20T11:47:26.278Z,46.37
2018-02-20T11:49:29.816Z,36.63
2018-02-20T11:51:33.409Z,36.40
2018-02-20T11:53:36.963Z,32.67
2018-02-20T11:55:40.486Z,36.70
2018-02-20T11:57:44.143Z,33.23
2018-02-20T11:59:47.658Z,29.63
2018-02-20T12:01:51.171Z,33.13
2018-02-20T12:03:55.562Z,33.93
2018-02-20T12:05:59.114Z,39.80
2018-02-20T12:08:02.663Z,37.83
2018-02-20T12:10:07.024Z,46.73
2018-02-20T12:12:10.605Z,37.30
2018-02-20T12:14:14.148Z,36.70
2018-02-20T12:16:17.753Z,30.90
2018-02-20T12:18:22.089Z,39.67
2018-02-20T12:20:26.429Z,53.57
2018-02-20T12:22:29.988Z,50.90
2018-02-20T12:24:34.275Z,51.10
2018-02-20T12:26:37.879Z,50.37
2018-02-20T12:28:41.461Z,47.40
2018-02-20T12:30:45.004Z,45.87
2018-02-20T12:32:49.395Z,46.70
2018-02-20T12:34:52.934Z,28.87
2018-02-20T12:36:56.520Z,33.80
2018-02-20T12:39:00.104Z,28.33
2018-02-20T12:41:03.717Z,47.10
2018-02-20T12:43:07.307Z,47.57
2018-02-20T12:45:10.853Z,45.30
2018-02-20T12:47:14.452Z,30.53
2018-02-20T12:49:18.047Z,47.07
2018-02-20T12:51:21.566Z,39.50
2018-02-20T12:53:25.919Z,36.33
2018-02-20T12:55:29.529Z,39.40
2018-02-20T12:57:33.107Z,40.10
2018-02-20T12:59:36.713Z,41.07
2018-02-20T13:01:40.305Z,40.43
2018-02-20T13:03:43.863Z,37.37
2018-02-20T13:05:48.256Z,39.63
2018-02-20T13:07:51.803Z,37.10
2018-02-20T13:09:55.338Z,39.47
2018-02-20T13:11:58.995Z,37.47
2018-02-20T13:14:03.298Z,42.97
2018-02-20T13:16:07.631Z,41.33
2018-02-20T13:18:11.273Z,39.47
2018-02-20T13:20:14.784Z,41.40
2018-02-20T13:22:18.381Z,43.23
2018-02-20T13:24:21.960Z,40.87
2018-02-20T13:26:25.496Z,42.27
2018-02-20T13:28:29.787Z,33.37
2018-02-20T13:30:33.370Z,39.87
2018-02-20T13:32:36.987Z,29.43
2018-02-20T13:34:40.511Z,33.47
2018-02-20T13:36:44.101Z,36.00
2018-02-20T13:38:48.469Z,32.10
2018-02-20T13:40:52.022Z,28.47
2018-02-20T13:42:55.553Z,39.13
2018-02-20T13:44:59.239Z,37.60
2018-02-20T13:47:03.666Z,38.60
2018-02-20T13:49:07.271Z,35.47
2018-02-20T13:51:10.885Z,36.07
2018-02-20T13:53:14.420Z,45.17
2018-02-20T13:55:17.972Z,32.03
2018-02-20T13:57:21.552Z,41.77
2018-02-20T13:59:25.145Z,39.77
2018-02-20T14:01:28.777Z,41.27
2018-02-20T14:03:32.349Z,39.10
2018-02-20T14:05:35.865Z,40.43
2018-02-20T14:07:40.231Z,30.73
2018-02-20T14:09:43.784Z,32.57
2018-02-20T14:11:48.092Z,36.43
2018-02-20T14:13:52.477Z,30.07
2018-02-20T14:15:56.030Z,31.70
2018-02-20T14:17:59.579Z,33.07
2018-02-20T14:20:03.185Z,33.30
2018-02-20T14:22:06.790Z,31.43
2018-02-20T14:24:11.154Z,34.23
2018-02-20T14:26:14.743Z,37.53
2018-02-20T14:28:18.276Z,31.73
2018-02-20T14:30:21.848Z,32.30
2018-02-20T14:32:25.435Z,35.23
2018-02-20T14:34:29.039Z,36.50
2018-02-20T14:36:32.588Z,32.43
2018-02-20T14:38:36.194Z,37.00
2018-02-20T14:40:39.711Z,29.73
2018-02-20T14:42:43.255Z,32.40
2018-02-20T14:44:46.872Z,33.57
2018-02-20T14:46:51.210Z,34.20
2018-02-20T14:48:54.786Z,33.00
2018-02-20T14:50:59.150Z,27.37
2018-02-20T14:53:02.722Z,30.03
2018-02-20T14:55:06.276Z,31.27
2018-02-20T14:57:10.671Z,31.10
2018-02-20T14:59:14.294Z,33.17
2018-02-20T15:01:18.765Z,33.47
2018-02-20T15:03:23.070Z,31.50
2018-02-20T15:05:26.681Z,34.27
2018-02-20T15:07:30.261Z,28.40
2018-02-20T15:09:33.817Z,30.60
2018-02-20T15:11:38.218Z,28.50
2018-02-20T15:13:42.609Z,30.90
2018-02-20T15:15:46.157Z,28.10
2018-02-20T15:17:49.726Z,32.07
2018-02-20T15:19:53.377Z,25.97
2018-02-20T15:21:57.031Z,28.73
2018-02-20T15:24:00.638Z,33.07
2018-02-20T15:26:04.226Z,29.50
2018-02-20T15:28:08.574Z,34.20
2018-02-20T15:30:12.426Z,29.67
2018-02-20T15:32:15.995Z,29.90
2018-02-20T15:34:19.646Z,32.03
2018-02-20T15:36:23.982Z,28.57
2018-02-20T15:38:27.597Z,30.20
2018-02-20T15:40:31.965Z,29.23
2018-02-20T15:42:35.537Z,32.37
2018-02-20T15:44:39.160Z,30.67
2018-02-20T15:46:42.709Z,28.23
2018-02-20T15:48:46.279Z,32.27
2018-02-20T15:50:49.892Z,29.60
2018-02-20T15:52:53.440Z,28.83
2018-02-20T15:54:57.023Z,29.67
2018-02-20T15:57:01.420Z,28.83
2018-02-20T15:59:04.992Z,34.70
2018-02-20T16:01:08.527Z,31.93
2018-02-20T16:03:12.113Z,32.80
2018-02-20T16:05:15.669Z,34.30
2018-02-20T16:07:19.254Z,32.67
2018-02-20T16:09:23.616Z,30.77
2018-02-20T16:11:27.170Z,29.67
2018-02-20T16:13:30.790Z,31.23
2018-02-20T16:15:49.315Z,35.97
2018-02-20T16:17:52.892Z,33.53
2018-02-20T16:19:57.276Z,32.37
2018-02-20T16:22:00.807Z,34.43
2018-02-20T16:24:05.172Z,35.53
2018-02-20T16:26:08.798Z,34.97
2018-02-20T16:28:12.325Z,37.50
2018-02-20T16:30:15.911Z,35.30
2018-02-20T16:32:19.527Z,31.17
2018-02-20T16:34:23.135Z,32.07
2018-02-20T16:36:26.677Z,36.20
2018-02-20T16:38:30.190Z,35.73
2018-02-20T16:40:34.613Z,34.90
2018-02-20T16:42:38.173Z,34.70
2018-02-20T16:44:41.712Z,39.37
2018-02-20T16:46:45.293Z,33.90
2018-02-20T16:48:49.607Z,37.10
2018-02-20T16:50:53.886Z,34.33
2018-02-20T16:52:57.440Z,37.57
2018-02-20T16:55:00.962Z,38.40
2018-02-20T16:57:04.579Z,40.83
2018-02-20T16:59:08.153Z,38.30
2018-02-20T17:01:11.705Z,40.10
2018-02-20T17:03:15.298Z,36.10
2018-02-20T17:05:19.694Z,32.97
2018-02-20T17:07:23.250Z,39.87
2018-02-20T17:09:26.828Z,39.20
2018-02-20T17:11:30.437Z,41.03
2018-02-20T17:13:33.967Z,40.90
2018-02-20T17:15:37.538Z,39.37
2018-02-20T17:17:41.094Z,38.97
2018-02-20T17:19:45.479Z,37.83
2018-02-20T17:21:49.000Z,38.17
2018-02-20T17:23:53.276Z,36.87
2018-02-20T17:25:56.882Z,39.27
2018-02-20T17:28:00.377Z,39.40
2018-02-20T17:30:03.983Z,40.03
2018-02-20T17:32:07.618Z,37.97
2018-02-20T17:34:11.132Z,42.17
2018-02-20T17:36:14.635Z,37.60
2018-02-20T17:38:18.204Z,36.47
2018-02-20T17:40:21.830Z,35.03
2018-02-20T17:42:25.346Z,39.10
2018-02-20T17:44:28.897Z,41.10
2018-02-20T17:46:32.494Z,40.67
2018-02-20T17:48:36.022Z,37.90
2018-02-20T17:50:39.596Z,45.53
2018-02-20T17:52:43.157Z,40.93
2018-02-20T17:54:47.470Z,38.77
2018-02-20T17:56:51.766Z,42.73
2018-02-20T17:58:56.150Z,42.60
2018-02-20T18:00:59.805Z,42.93
2018-02-20T18:03:03.391Z,47.50
2018-02-20T18:05:07.817Z,45.30
2018-02-20T18:07:11.420Z,44.57
2018-02-20T18:09:15.021Z,44.93
2018-02-20T18:11:18.643Z,44.20
2018-02-20T18:13:22.211Z,46.77
2018-02-20T18:15:25.818Z,43.87
2018-02-20T18:17:29.489Z,40.40
2018-02-20T18:19:33.795Z,48.90
2018-02-20T18:21:38.080Z,49.93
2018-02-20T18:23:41.671Z,41.83
2018-02-20T18:25:45.207Z,43.53
2018-02-20T18:27:49.535Z,45.07
2018-02-20T18:29:53.113Z,46.17
2018-02-20T18:31:57.437Z,46.97
2018-02-20T18:34:01.030Z,47.40
2018-02-20T18:36:04.659Z,45.43
2018-02-20T18:38:08.215Z,43.27
2018-02-20T18:40:11.802Z,48.20
2018-02-20T18:42:16.182Z,50.70
2018-02-20T18:44:19.725Z,49.03
2018-02-20T18:46:24.065Z,43.07
2018-02-20T18:48:27.662Z,42.93
2018-02-20T18:50:31.297Z,43.03
2018-02-20T18:52:34.862Z,43.73
2018-02-20T18:54:38.802Z,45.07
2018-02-20T18:56:42.613Z,42.57
2018-02-20T18:58:46.214Z,42.83
2018-02-20T19:00:49.820Z,46.80
2018-02-20T19:02:54.143Z,42.23
2018-02-20T19:04:58.527Z,47.50
2018-02-20T19:07:03.089Z,45.27
2018-02-20T19:09:06.669Z,48.90
2018-02-20T19:11:11.117Z,42.83
2018-02-20T19:13:14.863Z,44.17
2018-02-20T19:15:18.415Z,46.37
2018-02-20T19:17:21.970Z,47.10
2018-02-20T19:19:26.342Z,47.27
2018-02-20T19:21:29.961Z,46.90
2018-02-20T19:23:33.501Z,49.50
2018-02-20T19:25:37.844Z,55.67
2018-02-20T19:27:41.501Z,48.93
2018-02-20T19:29:45.050Z,57.97
2018-02-20T19:31:48.610Z,52.10
2018-02-20T19:33:52.221Z,49.70
2018-02-20T19:35:55.794Z,46.93
2018-02-20T19:37:59.360Z,47.23
2018-02-20T19:40:05.067Z,44.03
2018-02-20T19:42:09.173Z,47.97
2018-02-20T19:44:12.734Z,50.47
2018-02-20T19:46:17.117Z,52.13
2018-02-20T19:48:20.643Z,51.47
2018-02-20T19:50:25.011Z,48.47
2018-02-20T19:52:28.562Z,50.73
2018-02-20T19:54:32.145Z,53.43
2018-02-20T19:56:36.535Z,48.30
2018-02-20T19:58:40.090Z,48.43
2018-02-20T20:00:44.481Z,51.93
2018-02-20T20:02:48.120Z,53.87
2018-02-20T20:04:51.676Z,47.23
2018-02-20T20:06:55.335Z,51.27
2018-02-20T20:08:58.861Z,44.30
2018-02-20T20:11:03.243Z,46.93
2018-02-20T20:13:06.782Z,50.53
2018-02-20T20:15:10.291Z,50.80
2018-02-20T20:17:13.865Z,51.00
2018-02-20T20:19:18.248Z,52.40
2018-02-20T20:21:21.816Z,51.40
2018-02-20T20:23:25.496Z,52.77
2018-02-20T20:25:29.064Z,53.93
2018-02-20T20:27:33.449Z,55.23
2018-02-20T20:29:37.056Z,54.17
2018-02-20T20:31:40.614Z,52.40
2018-02-20T20:33:44.308Z,56.67
2018-02-20T20:35:47.936Z,50.73
2018-02-20T20:37:51.519Z,58.87
2018-02-20T20:39:55.089Z,52.03
2018-02-20T20:41:58.687Z,55.07
2018-02-20T20:44:02.353Z,52.30
2018-02-20T20:46:06.642Z,56.57
2018-02-20T20:48:10.182Z,54.43
2018-02-20T20:50:13.767Z,58.77
2018-02-20T20:52:17.383Z,58.50
2018-02-20T20:54:21.003Z,55.80
2018-02-20T20:56:24.525Z,58.97
2018-02-20T20:58:28.075Z,61.50
2018-02-20T21:00:31.682Z,56.20
2018-02-20T21:02:35.187Z,61.50
2018-02-20T21:04:38.731Z,62.53
2018-02-20T21:06:43.065Z,56.50
2018-02-20T21:08:46.640Z,58.93
2018-02-20T21:10:50.230Z,57.77
2018-02-20T21:12:54.609Z,55.20
2018-02-20T21:14:58.165Z,55.37
2018-02-20T21:17:02.441Z,57.30
2018-02-20T21:19:05.995Z,55.33
2018-02-20T21:21:09.559Z,58.60
2018-02-20T21:23:13.920Z,55.23
2018-02-20T21:25:17.609Z,56.80
2018-02-20T21:27:21.154Z,60.33
2018-02-20T21:29:24.784Z,58.03
2018-02-20T21:31:28.431Z,62.93
2018-02-20T21:33:31.971Z,60.07
2018-02-20T21:35:36.338Z,60.77
2018-02-20T21:37:39.942Z,60.90
2018-02-20T21:39:43.544Z,63.73
2018-02-20T21:41:47.102Z,62.93
2018-02-20T21:43:50.687Z,60.37
2018-02-20T21:45:55.463Z,60.57
2018-02-20T21:48:00.025Z,57.53
2018-02-20T21:50:07.413Z,66.87
2018-02-20T21:52:11.621Z,56.10
2018-02-20T21:54:15.190Z,53.20
2018-02-20T21:56:19.199Z,58.03
2018-02-20T21:58:23.527Z,55.03
2018-02-20T22:00:27.967Z,57.50
2018-02-20T22:02:31.631Z,57.97
2018-02-20T22:04:35.458Z,59.23
2018-02-20T22:06:42.056Z,63.97
2018-02-20T22:08:45.630Z,62.23
2018-02-20T22:10:49.224Z,61.20
2018-02-20T22:12:52.739Z,62.27
2018-02-20T22:14:57.134Z,63.03
2018-02-20T22:17:01.206Z,67.10
2018-02-20T22:19:04.772Z,67.43
2018-02-20T22:21:08.425Z,64.40
2018-02-20T22:23:12.071Z,64.27
2018-02-20T22:25:15.633Z,66.87
2018-02-20T22:27:19.241Z,65.00
2018-02-20T22:29:22.779Z,67.97
2018-02-20T22:31:27.118Z,66.63
2018-02-20T22:33:30.666Z,68.97
2018-02-20T22:35:34.228Z,65.60
2018-02-20T22:37:37.875Z,65.17
2018-02-20T22:39:41.434Z,66.03
2018-02-20T22:41:44.994Z,65.97
2018-02-20T22:43:48.566Z,69.67
2018-02-20T22:45:52.945Z,66.80
2018-02-20T22:47:56.511Z,61.67
2018-02-20T22:50:00.044Z,66.23
2018-02-20T22:52:03.653Z,68.47
2018-02-20T22:54:07.202Z,66.07
2018-02-20T22:56:10.786Z,72.37
2018-02-20T22:58:15.098Z,65.57
2018-02-20T23:00:18.657Z,65.60
2018-02-20T23:02:23.039Z,63.47
2018-02-20T23:04:26.703Z,61.33
2018-02-20T23:06:30.975Z,64.73
2018-02-20T23:08:34.568Z,73.93
2018-02-20T23:10:38.182Z,66.40
2018-02-20T23:12:41.723Z,67.33
2018-02-20T23:14:45.298Z,73.57
2018-02-20T23:16:49.622Z,69.43
2018-02-20T23:18:53.206Z,65.50
2018-02-20T23:20:57.558Z,72.90
2018-02-20T23:23:01.075Z,69.27
2018-02-20T23:25:05.546Z,70.60
2018-02-20T23:27:09.938Z,66.27
2018-02-20T23:29:14.260Z,59.50
2018-02-20T23:31:17.826Z,67.00
2018-02-20T23:33:21.420Z,62.43
2018-02-20T23:35:24.984Z,65.47
2018-02-20T23:37:28.534Z,67.27
2018-02-20T23:39:32.903Z,62.37
2018-02-20T23:41:36.450Z,68.93
2018-02-20T23:43:40.780Z,67.33
2018-02-20T23:45:44.372Z,62.60
2018-02-20T23:47:48.023Z,62.50
2018-02-20T23:49:51.551Z,67.20
2018-02-20T23:51:55.333Z,63.10
2018-02-20T23:53:58.858Z,60.90
2018-02-20T23:56:03.169Z,56.77
2018-02-20T23:58:06.776Z,70.27
